Time;durP1;ratioP1;P1;durP2;ratioP2;P2;SDS_P1;SDS_P2;PMS_P1;PMS_P2;Temp;Humidity;BMP_temperature;BMP_pressure;BME280_temperature;BME280_humidity;BME280_pressure;Samples;Min_cycle;Max_cycle;Signal;HPM_P1;HPM_P2
2023/12/05 00:01:46;;;;;;;35.28;21.38;;;;;;;;;;5047958;28;20108;-80
2023/12/05 00:04:12;;;;;;;37.15;22.50;;;;;;;;;;5065549;28;20476;-80
2023/12/05 00:06:38;;;;;;;34.92;22.35;;;;;;;;;;5058206;28;20009;-80
2023/12/05 00:09:04;;;;;;;37.35;23.02;;;;;;;;;;5063796;28;20027;-80
2023/12/05 00:11:30;;;;;;;34.90;21.25;;;;;;;;;;5065838;28;20097;-80
2023/12/05 00:13:56;;;;;;;36.97;21.77;;;;;;;;;;5062825;28;20078;-80
2023/12/05 00:16:22;;;;;;;36.28;21.38;;;;;;;;;;5066069;28;20016;-81
2023/12/05 00:18:50;;;;;;;35.30;21.60;;;;;;;;;;5068227;28;20063;-81
2023/12/05 00:21:19;;;;;;;36.88;23.00;;;;;;;;;;5060423;28;20151;-80
2023/12/05 00:23:45;;;;;;;34.05;20.58;;;;;;;;;;5067752;28;20468;-80
2023/12/05 00:26:11;;;;;;;37.63;21.95;;;;;;;;;;5058267;28;20009;-80
2023/12/05 00:28:37;;;;;;;35.88;22.80;;;;;;;;;;5055262;28;20013;-80
2023/12/05 00:31:03;;;;;;;37.33;22.90;;;;;;;;;;5055217;28;20021;-80
2023/12/05 00:33:29;;;;;;;35.95;21.23;;;;;;;;;;5052913;28;20051;-80
2023/12/05 00:35:55;;;;;;;40.97;23.48;;;;;;;;;;5052248;28;20465;-80
2023/12/05 00:38:21;;;;;;;37.83;23.35;;;;;;;;;;5065641;28;20021;-80
2023/12/05 00:40:47;;;;;;;37.47;22.48;;;;;;;;;;5067707;28;20025;-80
2023/12/05 00:43:13;;;;;;;38.65;22.02;;;;;;;;;;5052611;28;20020;-80
2023/12/05 00:45:39;;;;;;;39.08;22.85;;;;;;;;;;5071649;28;20074;-80
2023/12/05 00:48:05;;;;;;;38.45;23.77;;;;;;;;;;5056869;28;20142;-80
2023/12/05 00:50:31;;;;;;;37.92;22.27;;;;;;;;;;5066112;28;20123;-80
2023/12/05 00:52:58;;;;;;;40.15;23.35;;;;;;;;;;5055965;28;20013;-80
2023/12/05 00:55:23;;;;;;;35.65;20.95;;;;;;;;;;5051863;28;20507;-80
2023/12/05 00:57:49;;;;;;;41.38;23.85;;;;;;;;;;5057982;28;20529;-80
2023/12/05 01:00:16;;;;;;;40.30;24.10;;;;;;;;;;5067312;28;20108;-80
2023/12/05 01:02:42;;;;;;;38.65;23.15;;;;;;;;;;5059156;28;20016;-81
2023/12/05 01:05:09;;;;;;;40.17;22.58;;;;;;;;;;5051350;28;20511;-80
2023/12/05 01:07:35;;;;;;;42.85;24.70;;;;;;;;;;5061821;28;20019;-80
2023/12/05 01:10:02;;;;;;;42.15;23.63;;;;;;;;;;5057943;28;20029;-80
2023/12/05 01:12:28;;;;;;;42.45;23.63;;;;;;;;;;5051130;28;20013;-80
2023/12/05 01:14:54;;;;;;;42.88;22.35;;;;;;;;;;5060976;28;20019;-80
2023/12/05 01:17:20;;;;;;;41.55;23.60;;;;;;;;;;5070649;28;20025;-80
2023/12/05 01:19:46;;;;;;;40.78;24.30;;;;;;;;;;5060864;28;20021;-80
2023/12/05 01:22:12;;;;;;;40.42;24.13;;;;;;;;;;5051560;28;20417;-80
2023/12/05 01:24:38;;;;;;;45.05;25.58;;;;;;;;;;5058928;28;20021;-80
2023/12/05 01:27:04;;;;;;;43.05;25.00;;;;;;;;;;5059068;28;20013;-80
2023/12/05 01:29:30;;;;;;;45.15;25.80;;;;;;;;;;5064656;28;20017;-80
2023/12/05 01:31:56;;;;;;;44.17;25.35;;;;;;;;;;5061858;28;20016;-81
2023/12/05 01:34:22;;;;;;;39.70;23.00;;;;;;;;;;5057449;28;20029;-80
2023/12/05 01:36:48;;;;;;;44.67;26.20;;;;;;;;;;5063196;28;20458;-81
2023/12/05 01:39:14;;;;;;;45.42;26.48;;;;;;;;;;5064776;28;20020;-80
2023/12/05 01:41:40;;;;;;;42.88;24.23;;;;;;;;;;5057552;28;20024;-80
2023/12/05 01:44:06;;;;;;;44.63;25.92;;;;;;;;;;5058227;28;20012;-80
2023/12/05 01:46:33;;;;;;;48.40;26.88;;;;;;;;;;5053251;28;20015;-80
2023/12/05 01:48:59;;;;;;;44.75;25.20;;;;;;;;;;5052380;28;20218;-80
2023/12/05 01:51:26;;;;;;;44.47;26.38;;;;;;;;;;5067589;28;20021;-80
2023/12/05 01:53:52;;;;;;;46.33;26.38;;;;;;;;;;5062417;28;20017;-81
2023/12/05 01:56:18;;;;;;;47.10;26.23;;;;;;;;;;5058241;28;20017;-80
2023/12/05 01:58:45;;;;;;;51.78;28.27;;;;;;;;;;5051319;28;20477;-80
2023/12/05 02:01:13;;;;;;;47.67;27.17;;;;;;;;;;5059483;28;20278;-80
2023/12/05 02:03:39;;;;;;;51.97;29.10;;;;;;;;;;5050569;28;20024;-80
2023/12/05 02:06:06;;;;;;;50.80;28.48;;;;;;;;;;5052274;28;20009;-80
2023/12/05 02:08:32;;;;;;;50.95;28.67;;;;;;;;;;5053376;28;20116;-81
2023/12/05 02:10:58;;;;;;;52.22;29.23;;;;;;;;;;5067697;28;20490;-80
2023/12/05 02:13:24;;;;;;;48.08;27.88;;;;;;;;;;5066645;28;20052;-81
2023/12/05 02:15:56;;;;;;;49.15;28.85;;;;;;;;;;5060481;28;20090;-81
2023/12/05 02:18:27;;;;;;;53.88;29.75;;;;;;;;;;5054780;28;20473;-80
2023/12/05 02:21:00;;;;;;;53.85;28.48;;;;;;;;;;5059790;28;20023;-81
2023/12/05 02:23:41;;;;;;;52.78;29.38;;;;;;;;;;5059810;28;20021;-81
2023/12/05 02:26:11;;;;;;;56.58;32.70;;;;;;;;;;5053385;28;20043;-80
2023/12/05 02:28:38;;;;;;;56.60;32.45;;;;;;;;;;5063990;28;20162;-80
2023/12/05 02:31:05;;;;;;;55.17;32.72;;;;;;;;;;5055092;28;20691;-81
2023/12/05 02:33:31;;;;;;;55.45;31.95;;;;;;;;;;5052502;28;20051;-81
2023/12/05 02:36:01;;;;;;;54.03;32.65;;;;;;;;;;5063214;28;20043;-80
2023/12/05 02:38:48;;;;;;;56.33;33.38;;;;;;;;;;5057345;28;20062;-80
2023/12/05 02:41:19;;;;;;;53.03;31.35;;;;;;;;;;5045386;28;20480;-81
2023/12/05 02:43:47;;;;;;;56.88;33.83;;;;;;;;;;5062739;28;20009;-81
2023/12/05 02:46:15;;;;;;;53.17;31.27;;;;;;;;;;5056273;28;20044;-80
2023/12/05 02:48:41;;;;;;;54.90;31.13;;;;;;;;;;5063807;28;20012;-81
2023/12/05 02:51:08;;;;;;;56.58;34.60;;;;;;;;;;5054349;28;20616;-80
2023/12/05 02:53:34;;;;;;;52.33;31.75;;;;;;;;;;5066165;28;20023;-81
2023/12/05 02:56:00;;;;;;;51.47;30.20;;;;;;;;;;5065598;28;20325;-81
2023/12/05 02:58:26;;;;;;;52.35;30.77;;;;;;;;;;5063946;28;20618;-80
2023/12/05 03:00:52;;;;;;;50.67;30.70;;;;;;;;;;5056046;28;20067;-79
2023/12/05 03:03:18;;;;;;;50.78;30.30;;;;;;;;;;5058366;28;20010;-81
2023/12/05 03:05:44;;;;;;;53.17;32.55;;;;;;;;;;5056174;28;20005;-81
2023/12/05 03:08:10;;;;;;;52.10;30.65;;;;;;;;;;5055984;28;20009;-81
2023/12/05 03:10:36;;;;;;;53.45;31.63;;;;;;;;;;5063849;28;20013;-80
2023/12/05 03:13:02;;;;;;;55.83;31.92;;;;;;;;;;5059165;28;20076;-81
2023/12/05 03:15:28;;;;;;;55.83;31.63;;;;;;;;;;5051430;28;20055;-80
2023/12/05 03:17:54;;;;;;;55.30;31.52;;;;;;;;;;5055185;28;20013;-80
2023/12/05 03:20:20;;;;;;;51.80;30.17;;;;;;;;;;5048495;28;20025;-80
2023/12/05 03:22:46;;;;;;;53.15;30.20;;;;;;;;;;5052732;28;20043;-80
2023/12/05 03:25:12;;;;;;;55.70;32.70;;;;;;;;;;5063537;28;20411;-80
2023/12/05 03:27:38;;;;;;;53.03;29.77;;;;;;;;;;5061409;28;20021;-80
2023/12/05 03:30:04;;;;;;;57.65;32.40;;;;;;;;;;5059229;28;20051;-80
2023/12/05 03:32:31;;;;;;;55.13;31.20;;;;;;;;;;5051868;28;20041;-80
2023/12/05 03:34:56;;;;;;;52.13;30.75;;;;;;;;;;5052836;28;20362;-80
2023/12/05 03:37:22;;;;;;;54.65;30.50;;;;;;;;;;5056647;28;20024;-81
2023/12/05 03:39:49;;;;;;;56.28;30.95;;;;;;;;;;5053573;28;20052;-80
2023/12/05 03:42:14;;;;;;;52.92;30.02;;;;;;;;;;5056257;28;20024;-81
2023/12/05 03:44:40;;;;;;;54.03;30.98;;;;;;;;;;5062162;28;20013;-80
2023/12/05 03:47:06;;;;;;;52.22;30.58;;;;;;;;;;5069292;28;20051;-80
2023/12/05 03:49:32;;;;;;;55.45;31.10;;;;;;;;;;5060969;28;20104;-80
2023/12/05 03:52:01;;;;;;;46.25;27.00;;;;;;;;;;5061537;28;20025;-80
2023/12/05 03:54:27;;;;;;;52.35;30.70;;;;;;;;;;5059966;28;20075;-81
2023/12/05 03:56:53;;;;;;;51.33;29.05;;;;;;;;;;5063468;28;20016;-80
2023/12/05 03:59:19;;;;;;;47.55;28.75;;;;;;;;;;5058608;28;20104;-80
2023/12/05 04:01:45;;;;;;;52.10;29.75;;;;;;;;;;5066821;28;20453;-81
2023/12/05 04:04:11;;;;;;;52.45;30.02;;;;;;;;;;5064169;28;20004;-80
2023/12/05 04:06:37;;;;;;;51.25;29.15;;;;;;;;;;5058737;28;20492;-80
2023/12/05 04:09:04;;;;;;;50.00;29.52;;;;;;;;;;5056842;28;20063;-80
2023/12/05 04:11:31;;;;;;;52.47;30.08;;;;;;;;;;5062926;28;20042;-80
2023/12/05 04:13:58;;;;;;;51.30;30.02;;;;;;;;;;5067133;28;20051;-81
2023/12/05 04:16:24;;;;;;;52.05;30.45;;;;;;;;;;5055999;28;20015;-81
2023/12/05 04:18:50;;;;;;;46.60;27.23;;;;;;;;;;5062259;28;20017;-80
2023/12/05 04:21:17;;;;;;;51.70;29.17;;;;;;;;;;5065331;28;20044;-80
2023/12/05 04:23:43;;;;;;;54.13;30.80;;;;;;;;;;5063673;28;20005;-80
2023/12/05 04:26:13;;;;;;;47.95;29.00;;;;;;;;;;5062878;28;20051;-80
2023/12/05 04:28:39;;;;;;;54.07;31.07;;;;;;;;;;5064567;28;20021;-81
2023/12/05 04:31:05;;;;;;;49.85;29.67;;;;;;;;;;5066019;28;20032;-80
2023/12/05 04:33:31;;;;;;;49.75;28.70;;;;;;;;;;5063787;28;20045;-80
2023/12/05 04:35:57;;;;;;;50.90;29.80;;;;;;;;;;5057203;28;20024;-80
2023/12/05 04:38:23;;;;;;;51.58;31.55;;;;;;;;;;5060444;28;20448;-80
2023/12/05 04:40:49;;;;;;;52.17;29.92;;;;;;;;;;5055135;28;20012;-80
2023/12/05 04:43:16;;;;;;;51.03;30.80;;;;;;;;;;5059726;28;20483;-80
2023/12/05 04:45:42;;;;;;;50.30;29.80;;;;;;;;;;5067024;28;20102;-80
2023/12/05 04:48:08;;;;;;;51.55;31.15;;;;;;;;;;5072642;28;20046;-80
2023/12/05 04:50:34;;;;;;;47.25;27.75;;;;;;;;;;5058801;28;20029;-81
2023/12/05 04:53:00;;;;;;;48.55;29.42;;;;;;;;;;5058577;28;20772;-80
2023/12/05 04:55:26;;;;;;;53.60;30.75;;;;;;;;;;5056095;28;20020;-80
2023/12/05 04:57:52;;;;;;;50.08;30.35;;;;;;;;;;5055724;28;20437;-80
2023/12/05 05:00:19;;;;;;;50.13;27.85;;;;;;;;;;5057627;28;20531;-80
2023/12/05 05:02:45;;;;;;;53.63;31.98;;;;;;;;;;5056808;28;20460;-80
2023/12/05 05:05:13;;;;;;;51.42;30.50;;;;;;;;;;5060750;28;20087;-82
2023/12/05 05:07:39;;;;;;;51.28;30.83;;;;;;;;;;5059302;28;20020;-79
2023/12/05 05:10:05;;;;;;;55.55;31.25;;;;;;;;;;5061309;28;20400;-80
2023/12/05 05:12:31;;;;;;;52.60;31.38;;;;;;;;;;5057289;28;20046;-77
2023/12/05 05:14:58;;;;;;;52.22;31.23;;;;;;;;;;5056765;28;20016;-77
2023/12/05 05:17:24;;;;;;;52.47;30.55;;;;;;;;;;5062218;28;20021;-78
2023/12/05 05:19:50;;;;;;;54.88;31.17;;;;;;;;;;5054893;28;20063;-78
2023/12/05 05:22:16;;;;;;;77.07;33.45;;;;;;;;;;5054149;28;20071;-78
2023/12/05 05:24:42;;;;;;;56.72;33.25;;;;;;;;;;5062397;28;20044;-77
2023/12/05 05:27:08;;;;;;;54.78;32.75;;;;;;;;;;5058270;28;20083;-77
2023/12/05 05:29:34;;;;;;;59.40;35.00;;;;;;;;;;5053948;28;20039;-85
2023/12/05 05:32:00;;;;;;;55.65;32.78;;;;;;;;;;5056061;28;20020;-78
2023/12/05 05:34:26;;;;;;;57.13;32.03;;;;;;;;;;5055521;28;20053;-78
2023/12/05 05:36:52;;;;;;;57.55;31.95;;;;;;;;;;5056531;28;20024;-77
2023/12/05 05:39:18;;;;;;;57.13;33.08;;;;;;;;;;5054779;28;20028;-78
2023/12/05 05:41:44;;;;;;;56.17;32.13;;;;;;;;;;5053976;28;20012;-78
2023/12/05 05:44:10;;;;;;;59.10;34.25;;;;;;;;;;5053773;28;20019;-78
2023/12/05 05:46:36;;;;;;;61.33;35.33;;;;;;;;;;5051973;28;20412;-79
2023/12/05 05:49:02;;;;;;;59.28;34.45;;;;;;;;;;5055928;28;20024;-79
2023/12/05 05:51:28;;;;;;;57.20;33.50;;;;;;;;;;5053360;28;20023;-80
2023/12/05 05:53:55;;;;;;;61.00;34.88;;;;;;;;;;5052071;28;20472;-80
2023/12/05 05:56:22;;;;;;;60.33;32.67;;;;;;;;;;5049825;28;20108;-80
2023/12/05 05:58:48;;;;;;;57.70;32.70;;;;;;;;;;5052184;28;20032;-80
2023/12/05 06:01:14;;;;;;;57.92;32.90;;;;;;;;;;5049725;28;20040;-80
2023/12/05 06:03:41;;;;;;;58.95;33.75;;;;;;;;;;5048068;28;20496;-79
2023/12/05 06:06:07;;;;;;;56.28;32.65;;;;;;;;;;5046445;28;20180;-82
2023/12/05 06:08:33;;;;;;;55.47;31.88;;;;;;;;;;5028042;28;20385;-80
2023/12/05 06:10:59;;;;;;;54.53;32.05;;;;;;;;;;5066550;28;20075;-80
2023/12/05 06:13:25;;;;;;;59.45;33.90;;;;;;;;;;5050950;28;20021;-80
2023/12/05 06:15:51;;;;;;;57.00;32.80;;;;;;;;;;5049980;28;20027;-79
2023/12/05 06:18:17;;;;;;;58.20;33.03;;;;;;;;;;5050093;28;20021;-80
2023/12/05 06:20:44;;;;;;;52.47;30.52;;;;;;;;;;5064968;28;20017;-80
2023/12/05 06:23:10;;;;;;;57.10;33.38;;;;;;;;;;5065294;28;20043;-80
2023/12/05 06:25:36;;;;;;;57.60;32.97;;;;;;;;;;5062687;28;20020;-81
2023/12/05 06:28:02;;;;;;;58.33;33.78;;;;;;;;;;5068951;28;20016;-80
2023/12/05 06:30:28;;;;;;;54.72;32.55;;;;;;;;;;5055733;28;20178;-80
2023/12/05 06:32:55;;;;;;;53.60;31.27;;;;;;;;;;5049506;28;20037;-80
2023/12/05 06:35:21;;;;;;;54.58;31.80;;;;;;;;;;5059260;28;20464;-80
2023/12/05 06:37:48;;;;;;;57.25;33.45;;;;;;;;;;5065645;28;20396;-84
2023/12/05 06:40:14;;;;;;;57.25;32.45;;;;;;;;;;5051350;28;20457;-82
2023/12/05 06:42:40;;;;;;;60.13;34.60;;;;;;;;;;5050352;28;20017;-83
2023/12/05 06:45:06;;;;;;;58.30;31.83;;;;;;;;;;5058468;28;20380;-82
2023/12/05 06:47:33;;;;;;;57.30;32.13;;;;;;;;;;5069286;28;20020;-88
2023/12/05 06:50:02;;;;;;;57.85;33.08;;;;;;;;;;5063928;28;20021;-86
2023/12/05 06:52:28;;;;;;;62.20;33.38;;;;;;;;;;5049917;28;20024;-83
2023/12/05 06:54:54;;;;;;;59.60;31.85;;;;;;;;;;5053564;28;20019;-83
2023/12/05 06:57:20;;;;;;;64.45;33.47;;;;;;;;;;5069167;28;20108;-85
2023/12/05 06:59:46;;;;;;;60.28;31.67;;;;;;;;;;5067894;28;20088;-82
2023/12/05 07:02:12;;;;;;;61.25;33.55;;;;;;;;;;5049178;28;20635;-82
2023/12/05 07:04:38;;;;;;;62.78;33.60;;;;;;;;;;5049694;28;20013;-83
2023/12/05 07:07:04;;;;;;;60.13;31.48;;;;;;;;;;5052737;28;20009;-83
2023/12/05 07:09:34;;;;;;;62.88;32.90;;;;;;;;;;5048902;28;20483;-82
2023/12/05 07:12:00;;;;;;;;;;;;;;;;;;5045149;28;20022;-82
2023/12/05 07:14:26;;;;;;;58.20;31.38;;;;;;;;;;5048619;28;19912;-82
2023/12/05 07:16:52;;;;;;;58.22;32.03;;;;;;;;;;5052185;28;20389;-83
2023/12/05 07:19:18;;;;;;;59.95;32.20;;;;;;;;;;5045626;28;20664;-82
2023/12/05 07:21:44;;;;;;;59.85;32.90;;;;;;;;;;5049977;28;20021;-82
2023/12/05 07:24:10;;;;;;;58.00;31.70;;;;;;;;;;5075467;28;20005;-82
2023/12/05 07:26:36;;;;;;;58.05;31.67;;;;;;;;;;5050187;28;20039;-82
2023/12/05 07:29:02;;;;;;;58.40;33.50;;;;;;;;;;5047367;28;20457;-82
2023/12/05 07:31:28;;;;;;;58.92;32.75;;;;;;;;;;5050538;28;20350;-82
2023/12/05 07:33:57;;;;;;;57.20;30.55;;;;;;;;;;5048131;28;20118;-82
2023/12/05 07:36:23;;;;;;;52.35;30.05;;;;;;;;;;5048475;28;20043;-82
2023/12/05 07:38:49;;;;;;;59.15;30.88;;;;;;;;;;5048475;28;20108;-82
2023/12/05 07:41:19;;;;;;;55.38;29.65;;;;;;;;;;5048652;28;20013;-82
2023/12/05 07:43:45;;;;;;;52.35;29.50;;;;;;;;;;5047566;28;20020;-82
2023/12/05 07:46:11;;;;;;;53.00;30.52;;;;;;;;;;5050373;28;20055;-82
2023/12/05 07:48:37;;;;;;;53.47;29.63;;;;;;;;;;5048548;28;20025;-82
2023/12/05 07:51:04;;;;;;;53.38;30.90;;;;;;;;;;5051498;28;20051;-82
2023/12/05 07:53:30;;;;;;;49.63;28.75;;;;;;;;;;5048750;28;20016;-82
2023/12/05 07:55:55;;;;;;;51.05;29.35;;;;;;;;;;5048688;28;20017;-82
2023/12/05 07:58:21;;;;;;;49.33;29.33;;;;;;;;;;5049841;28;20366;-82
2023/12/05 08:00:47;;;;;;;49.83;28.15;;;;;;;;;;5052939;28;20017;-82
2023/12/05 08:03:14;;;;;;;50.55;29.58;;;;;;;;;;5068476;28;20070;-82
2023/12/05 08:05:40;;;;;;;48.17;29.42;;;;;;;;;;5066384;28;20473;-82
2023/12/05 08:08:07;;;;;;;46.33;27.92;;;;;;;;;;5048617;28;20048;-82
2023/12/05 08:10:33;;;;;;;50.35;28.92;;;;;;;;;;5050148;28;20078;-82
2023/12/05 08:12:59;;;;;;;44.50;26.35;;;;;;;;;;5068884;28;20091;-82
2023/12/05 08:15:25;;;;;;;44.33;26.73;;;;;;;;;;5067201;28;20158;-82
2023/12/05 08:17:51;;;;;;;45.63;27.40;;;;;;;;;;5050457;28;20032;-82
2023/12/05 08:20:17;;;;;;;42.53;25.50;;;;;;;;;;5048774;28;20040;-83
2023/12/05 08:22:43;;;;;;;44.97;26.88;;;;;;;;;;5066565;28;20115;-82
2023/12/05 08:25:10;;;;;;;42.40;26.13;;;;;;;;;;5068317;28;20518;-82
2023/12/05 08:27:36;;;;;;;42.92;26.55;;;;;;;;;;5052100;28;20053;-82
2023/12/05 08:30:02;;;;;;;42.92;25.92;;;;;;;;;;5048275;28;20044;-82
2023/12/05 08:32:28;;;;;;;43.38;26.02;;;;;;;;;;5067111;28;20024;-82
2023/12/05 08:34:54;;;;;;;41.70;25.88;;;;;;;;;;5071952;28;20098;-82
2023/12/05 08:37:21;;;;;;;41.65;25.58;;;;;;;;;;5056812;28;20445;-82
2023/12/05 08:39:47;;;;;;;37.65;24.08;;;;;;;;;;5050607;28;20017;-82
2023/12/05 08:42:13;;;;;;;37.13;24.15;;;;;;;;;;5062667;28;20017;-82
2023/12/05 08:44:39;;;;;;;38.70;24.40;;;;;;;;;;5070682;28;20351;-82
2023/12/05 08:47:05;;;;;;;37.25;24.27;;;;;;;;;;5059284;28;20054;-83
2023/12/05 08:49:31;;;;;;;35.17;22.02;;;;;;;;;;5051036;28;20488;-83
2023/12/05 08:51:57;;;;;;;36.88;23.45;;;;;;;;;;5061530;28;20077;-82
2023/12/05 08:54:23;;;;;;;36.58;24.45;;;;;;;;;;5071437;28;20016;-82
2023/12/05 08:56:49;;;;;;;39.85;24.63;;;;;;;;;;5063777;28;20036;-83
2023/12/05 08:59:15;;;;;;;38.72;25.15;;;;;;;;;;5050929;28;20029;-83
2023/12/05 09:01:41;;;;;;;39.42;24.90;;;;;;;;;;5057998;28;20130;-83
2023/12/05 09:04:08;;;;;;;39.28;24.77;;;;;;;;;;5070888;28;20017;-83
2023/12/05 09:06:34;;;;;;;37.92;25.27;;;;;;;;;;5065861;28;20017;-83
2023/12/05 09:09:00;;;;;;;37.38;22.80;;;;;;;;;;5050545;28;20517;-82
2023/12/05 09:11:26;;;;;;;37.13;24.40;;;;;;;;;;5054018;28;20107;-83
2023/12/05 09:13:52;;;;;;;39.65;24.55;;;;;;;;;;5048464;28;20122;-83
2023/12/05 09:16:20;;;;;;;37.63;24.50;;;;;;;;;;5048780;28;20112;-83
2023/12/05 09:18:46;;;;;;;39.03;24.50;;;;;;;;;;5043161;28;20029;-83
2023/12/05 09:21:12;;;;;;;38.30;25.27;;;;;;;;;;5032342;28;20025;-83
2023/12/05 09:23:38;;;;;;;34.63;22.73;;;;;;;;;;5054269;28;20076;-83
2023/12/05 09:26:05;;;;;;;37.67;24.55;;;;;;;;;;5045545;28;20019;-82
2023/12/05 09:28:33;;;;;;;36.45;24.05;;;;;;;;;;5061240;28;20021;-83
2023/12/05 09:30:59;;;;;;;38.15;24.30;;;;;;;;;;5047952;28;20474;-83
2023/12/05 09:33:25;;;;;;;37.85;24.40;;;;;;;;;;5066879;28;20131;-83
2023/12/05 09:35:51;;;;;;;39.10;24.60;;;;;;;;;;5050062;28;20104;-83
2023/12/05 09:38:17;;;;;;;38.38;24.73;;;;;;;;;;5052885;28;20024;-82
2023/12/05 09:40:43;;;;;;;37.88;24.70;;;;;;;;;;5050453;28;20214;-82
2023/12/05 09:43:10;;;;;;;37.28;22.90;;;;;;;;;;5060286;28;20222;-83
2023/12/05 09:45:39;;;;;;;37.05;24.33;;;;;;;;;;5059974;28;20015;-83
2023/12/05 09:48:08;;;;;;;40.38;24.52;;;;;;;;;;5058594;28;20377;-83
2023/12/05 09:50:36;;;;;;;37.95;25.10;;;;;;;;;;5050263;28;20021;-83
2023/12/05 09:53:03;;;;;;;40.75;25.33;;;;;;;;;;5050776;28;20013;-84
2023/12/05 09:55:29;;;;;;;38.53;23.98;;;;;;;;;;5049614;28;20100;-83
2023/12/05 09:57:56;;;;;;;37.22;24.65;;;;;;;;;;5050003;28;20563;-83
2023/12/05 10:00:23;;;;;;;40.10;25.30;;;;;;;;;;5051825;28;20385;-83
2023/12/05 10:02:50;;;;;;;37.88;23.42;;;;;;;;;;5060215;28;20024;-83
2023/12/05 10:05:17;;;;;;;40.83;25.27;;;;;;;;;;5071347;28;20013;-83
2023/12/05 10:07:46;;;;;;;38.22;24.65;;;;;;;;;;5063083;28;20079;-83
2023/12/05 10:10:13;;;;;;;38.58;24.02;;;;;;;;;;5050531;28;20021;-83
2023/12/05 10:12:39;;;;;;;37.85;24.60;;;;;;;;;;5047981;28;20021;-83
2023/12/05 10:15:05;;;;;;;40.75;25.08;;;;;;;;;;5032460;28;20544;-82
2023/12/05 10:17:33;;;;;;;40.05;26.35;;;;;;;;;;5050039;28;20017;-82
2023/12/05 10:19:59;;;;;;;40.83;25.05;;;;;;;;;;5069987;28;20446;-82
2023/12/05 10:22:33;;;;;;;42.17;24.90;;;;;;;;;;5049438;28;20062;-82
2023/12/05 10:24:59;;;;;;;40.65;23.42;;;;;;;;;;5039357;28;20116;-83
2023/12/05 10:27:26;;;;;;;41.35;25.17;;;;;;;;;;5067177;28;20097;-83
2023/12/05 10:29:53;;;;;;;40.50;24.50;;;;;;;;;;5050990;28;20074;-82
2023/12/05 10:32:25;;;;;;;38.05;24.15;;;;;;;;;;5052202;28;20032;-83
2023/12/05 10:34:52;;;;;;;39.67;23.90;;;;;;;;;;5071083;28;20472;-82
2023/12/05 10:37:22;;;;;;;38.83;24.08;;;;;;;;;;5067854;28;20013;-83
2023/12/05 10:39:52;;;;;;;39.47;24.25;;;;;;;;;;5050281;28;20106;-82
2023/12/05 10:42:20;;;;;;;36.88;22.90;;;;;;;;;;5053559;28;20013;-82
2023/12/05 10:44:47;;;;;;;38.95;24.13;;;;;;;;;;5070313;28;20023;-82
2023/12/05 10:47:13;;;;;;;38.65;23.55;;;;;;;;;;5068879;28;20009;-83
2023/12/05 10:49:43;;;;;;;36.97;23.10;;;;;;;;;;5049712;28;20461;-83
2023/12/05 10:52:09;;;;;;;37.92;24.63;;;;;;;;;;5049656;28;20028;-81
2023/12/05 10:54:35;;;;;;;37.97;23.45;;;;;;;;;;5068584;28;20086;-83
2023/12/05 10:57:08;;;;;;;38.30;24.55;;;;;;;;;;5069556;28;20456;-82
2023/12/05 10:59:35;;;;;;;36.53;24.20;;;;;;;;;;5049925;28;20466;-82
2023/12/05 11:02:01;;;;;;;37.75;24.60;;;;;;;;;;5048534;28;20051;-82
2023/12/05 11:04:27;;;;;;;37.58;24.42;;;;;;;;;;5067115;28;20042;-82
2023/12/05 11:06:53;;;;;;;39.25;24.70;;;;;;;;;;5069011;28;20020;-82
2023/12/05 11:09:20;;;;;;;39.70;25.77;;;;;;;;;;5052704;28;20618;-82
2023/12/05 11:11:47;;;;;;;38.50;25.48;;;;;;;;;;5050480;28;20025;-82
2023/12/05 11:14:15;;;;;;;37.13;25.13;;;;;;;;;;5055155;28;20009;-82
2023/12/05 11:16:49;;;;;;;37.42;24.38;;;;;;;;;;5047802;28;20052;-82
2023/12/05 11:19:15;;;;;;;37.65;24.60;;;;;;;;;;5062159;28;20021;-82
2023/12/05 11:21:44;;;;;;;39.15;24.88;;;;;;;;;;5062994;28;20472;-82
2023/12/05 11:24:19;;;;;;;37.70;23.75;;;;;;;;;;5062836;28;20021;-82
2023/12/05 11:26:54;;;;;;;35.50;22.77;;;;;;;;;;5070105;28;20095;-82
2023/12/05 11:29:23;;;;;;;38.60;25.50;;;;;;;;;;5054331;28;20031;-82
2023/12/05 11:31:58;;;;;;;37.90;24.10;;;;;;;;;;5049247;28;20060;-82
2023/12/05 11:35:00;;;;;;;37.30;24.85;;;;;;;;;;5053073;28;20436;-82
2023/12/05 11:37:35;;;;;;;37.80;23.85;;;;;;;;;;5036457;28;20072;-82
2023/12/05 11:40:01;;;;;;;37.33;23.80;;;;;;;;;;5052928;28;20027;-82
2023/12/05 11:42:27;;;;;;;36.72;24.45;;;;;;;;;;5053371;28;20096;-82
2023/12/05 11:44:53;;;;;;;36.53;23.88;;;;;;;;;;5057105;28;20020;-82
2023/12/05 11:47:24;;;;;;;37.78;24.25;;;;;;;;;;5048782;28;20013;-82
2023/12/05 11:49:50;;;;;;;38.75;25.02;;;;;;;;;;5052295;28;20017;-82
2023/12/05 11:52:17;;;;;;;38.70;25.20;;;;;;;;;;5050108;28;20298;-82
2023/12/05 11:54:43;;;;;;;38.10;24.60;;;;;;;;;;5050803;28;20013;-82
2023/12/05 11:57:13;;;;;;;35.50;23.48;;;;;;;;;;5049038;28;20021;-82
2023/12/05 11:59:40;;;;;;;36.38;24.08;;;;;;;;;;5051150;28;20032;-82
2023/12/05 12:02:07;;;;;;;39.00;24.88;;;;;;;;;;5048877;28;20044;-83
2023/12/05 12:04:33;;;;;;;36.30;24.00;;;;;;;;;;5048217;28;20495;-82
2023/12/05 12:06:59;;;;;;;35.95;24.85;;;;;;;;;;5049965;28;20021;-82
2023/12/05 12:09:25;;;;;;;37.13;25.27;;;;;;;;;;5062998;28;20237;-82
2023/12/05 12:11:51;;;;;;;36.58;23.75;;;;;;;;;;5071749;28;20064;-82
2023/12/05 12:14:20;;;;;;;37.78;24.65;;;;;;;;;;5061864;28;20043;-82
2023/12/05 12:16:47;;;;;;;38.28;25.00;;;;;;;;;;5052073;28;20013;-89
2023/12/05 12:19:14;;;;;;;37.22;24.80;;;;;;;;;;5057821;28;20036;-90
2023/12/05 12:21:41;;;;;;;36.50;23.13;;;;;;;;;;5051649;28;20009;-81
2023/12/05 12:24:25;;;;;;;34.90;22.80;;;;;;;;;;5058636;28;20016;-82
2023/12/05 12:26:55;;;;;;;38.95;25.13;;;;;;;;;;5073047;28;20017;-82
2023/12/05 12:29:24;;;;;;;38.55;25.27;;;;;;;;;;5063701;28;20064;-82
2023/12/05 12:31:52;;;;;;;38.80;25.02;;;;;;;;;;5053367;28;20108;-82
2023/12/05 12:34:26;;;;;;;36.30;23.27;;;;;;;;;;5053933;28;20041;-82
2023/12/05 12:36:57;;;;;;;36.35;23.73;;;;;;;;;;5054284;28;20615;-82
2023/12/05 12:39:26;;;;;;;;;;;;;;;;;;5066309;28;20085;-82
2023/12/05 12:41:56;;;;;;;35.30;24.10;;;;;;;;;;5065549;28;19904;-82
2023/12/05 12:44:23;;;;;;;35.40;25.10;;;;;;;;;;5060910;28;20073;-82
2023/12/05 12:46:49;;;;;;;38.55;24.45;;;;;;;;;;5072036;28;20073;-84
2023/12/05 12:49:15;;;;;;;39.58;26.17;;;;;;;;;;5065856;28;20020;-83
2023/12/05 12:51:41;;;;;;;39.08;25.45;;;;;;;;;;5051691;28;20017;-83
2023/12/05 12:54:08;;;;;;;39.67;24.40;;;;;;;;;;5054145;28;20156;-82
2023/12/05 12:56:34;;;;;;;40.55;24.70;;;;;;;;;;5053968;28;20039;-83
2023/12/05 12:59:04;;;;;;;41.20;25.13;;;;;;;;;;5056704;28;20025;-82
2023/12/05 13:01:38;;;;;;;39.00;25.88;;;;;;;;;;5073485;28;20028;-82
2023/12/05 13:04:08;;;;;;;38.83;25.13;;;;;;;;;;5073662;28;20024;-83
2023/12/05 13:06:38;;;;;;;41.85;25.45;;;;;;;;;;5072315;28;20040;-82
2023/12/05 13:09:11;;;;;;;39.35;24.67;;;;;;;;;;5054464;28;20526;-82
2023/12/05 13:11:37;;;;;;;37.92;23.83;;;;;;;;;;5053525;28;20477;-82
2023/12/05 13:14:17;;;;;;;40.95;25.15;;;;;;;;;;5052823;28;20474;-82
2023/12/05 13:16:44;;;;;;;42.63;25.63;;;;;;;;;;5051924;28;20060;-82
2023/12/05 13:19:39;;;;;;;41.22;26.10;;;;;;;;;;5052441;28;20500;-83
2023/12/05 13:22:05;;;;;;;40.03;26.00;;;;;;;;;;5036740;28;20025;-83
2023/12/05 13:24:31;;;;;;;42.20;26.98;;;;;;;;;;5051337;28;20017;-82
2023/12/05 13:27:00;;;;;;;41.50;25.33;;;;;;;;;;5050738;28;20017;-81
2023/12/05 13:29:26;;;;;;;44.38;26.90;;;;;;;;;;5049496;28;20192;-82
2023/12/05 13:31:52;;;;;;;40.80;25.95;;;;;;;;;;5037012;28;20025;-83
2023/12/05 13:34:18;;;;;;;44.15;26.38;;;;;;;;;;5032544;28;20258;-82
2023/12/05 13:36:44;;;;;;;43.72;26.58;;;;;;;;;;5060933;28;20565;-82
2023/12/05 13:39:13;;;;;;;43.88;27.17;;;;;;;;;;5038364;28;20099;-82
2023/12/05 13:41:39;;;;;;;43.00;26.17;;;;;;;;;;5069423;28;20385;-82
2023/12/05 13:44:05;;;;;;;46.65;27.25;;;;;;;;;;5070917;28;20024;-82
2023/12/05 13:46:31;;;;;;;47.42;28.67;;;;;;;;;;5050415;28;20428;-81
2023/12/05 13:49:04;;;;;;;40.38;23.35;;;;;;;;;;5049832;28;20017;-81
2023/12/05 13:51:30;;;;;;;44.53;26.80;;;;;;;;;;5057435;28;20492;-82
2023/12/05 13:53:56;;;;;;;46.30;28.13;;;;;;;;;;5047083;28;20029;-82
2023/12/05 13:56:22;;;;;;;47.85;29.45;;;;;;;;;;5044805;28;20048;-82
2023/12/05 13:58:48;;;;;;;45.38;26.10;;;;;;;;;;5045602;28;20036;-82
2023/12/05 14:01:15;;;;;;;50.00;30.38;;;;;;;;;;5050717;28;20021;-82
2023/12/05 14:03:41;;;;;;;49.33;29.25;;;;;;;;;;5051444;28;20025;-82
2023/12/05 14:06:10;;;;;;;50.20;30.83;;;;;;;;;;5050727;28;20048;-82
2023/12/05 14:08:36;;;;;;;52.63;31.65;;;;;;;;;;5048190;28;20121;-82
2023/12/05 14:11:02;;;;;;;53.90;32.20;;;;;;;;;;5044867;28;20088;-82
2023/12/05 14:13:29;;;;;;;49.53;30.73;;;;;;;;;;5080814;28;20029;-82
2023/12/05 14:15:55;;;;;;;52.38;31.75;;;;;;;;;;5050963;28;20477;-82
2023/12/05 14:18:21;;;;;;;52.60;32.35;;;;;;;;;;5050006;28;20246;-82